Etusivu
METAR-TAF:

METAR-TAF

Lentoasemat :

Minden, Nevada, Yhdysvallat

Leveyspiiri: 39-00-03N, Pituuspiiri: 119-45-07W, korkeus merenpinnasta: 1439 m

Tämänhetkinen sää

Tämä raportti tehtiin 29 minuuttia sitten, kello 07.55 UTC
tyyntä
Lämpötila 5°C
Kosteus 70%
Ilmanpaine 1022 hPa
Näkyvyys: 16.1 km
selkeää

METAR: KMEV 240755Z AUTO 00000KT 10SM CLR 05/00 A3019 RMK AO2

Aika: 01:24 (08:24 UTC)


TAF: puuttuu

Säähavainnot ja -ennusteet yli 4000 lentoasemalta (METAR- ja TAF-raportit).

Käytössä olevat sääasemat on merkitty karttaan keltaisilla ja punaisilla pisteillä.

Aseta hiiri pisteen päälle nähdäksesi sääaseman nimen.

Klikkaa sitten nähdäksesi säähavainnot ja -ennusteet.

Kartan vaihtaminen: klikkaa mustalla rastilla varustettuja vihreitä pisteitä, niin voit zoomata sisään; viivalla varustettua vihreää pistettä, niin voit zoomata ulos tai vihreitä nuolia, niin pääset viereisille kartoille.


METAR-TAF: